Repton, Alabama
Current Conditions -  °F | °C
As of 6:53 AM on Friday 26 Dec 2014 (Local Time) from KGZH Reporting Station
Clear Clear  
Wind Chill: 34°   Ceiling: Unl
Heat Index: 34°   Visibility: 9mi
Dew Point: 31°   Wind: 0mph
Humidity: 89%   Direction: NA
Pressure: 30.29"   Gusts: NA
Location:  31.41°N, 87.24°W
Report Text: KGZH 261253Z AUTO 00000KT 9SM CLR 01/M01 A3029 RMK AO2 SLP257 T00111006
Loading
Personal Weather Stations






























Interactive Weather Map New forecast layout! Learn more

10-Day Weather Forecast

Advertisements
Track Severe Weather on mobile